createdAt,value
2017-04-11T00:00:53.451Z,1012.39
2017-04-11T00:01:53.983Z,1012.44
2017-04-11T00:02:54.517Z,1012.41
2017-04-11T00:03:55.045Z,1012.44
2017-04-11T00:04:55.575Z,1012.46
2017-04-11T00:05:56.104Z,1012.45
2017-04-11T00:06:56.633Z,1012.42
2017-04-11T00:07:57.163Z,1012.47
2017-04-11T00:08:57.696Z,1012.47
2017-04-11T00:09:58.225Z,1012.42
2017-04-11T00:10:58.908Z,1012.52
2017-04-11T00:11:59.288Z,1012.47
2017-04-11T00:12:59.820Z,1012.47
2017-04-11T00:14:00.356Z,1012.50
2017-04-11T00:15:00.884Z,1012.52
2017-04-11T00:16:01.421Z,1012.54
2017-04-11T00:17:03.752Z,1012.52
2017-04-11T00:18:02.492Z,1012.53
2017-04-11T00:19:03.025Z,1012.47
2017-04-11T00:20:03.575Z,1012.51
2017-04-11T00:21:04.105Z,1012.44
2017-04-11T00:22:04.639Z,1012.52
2017-04-11T00:23:05.155Z,1012.56
2017-04-11T00:24:05.686Z,1012.52
2017-04-11T00:25:06.219Z,1012.62
2017-04-11T00:26:06.753Z,1012.52
2017-04-11T00:27:07.282Z,1012.58
2017-04-11T00:28:07.811Z,1012.59
2017-04-11T00:29:08.342Z,1012.61
2017-04-11T00:30:08.874Z,1012.60
2017-04-11T00:31:09.400Z,1012.61
2017-04-11T00:32:09.935Z,1012.66
2017-04-11T00:33:10.462Z,1012.64
2017-04-11T00:34:10.992Z,1012.65
2017-04-11T00:35:11.526Z,1012.69
2017-04-11T00:36:12.056Z,1012.67
2017-04-11T00:37:12.584Z,1012.65
2017-04-11T00:38:13.114Z,1012.65
2017-04-11T00:39:13.642Z,1012.66
2017-04-11T00:40:14.174Z,1012.67
2017-04-11T00:41:14.705Z,1012.66
2017-04-11T00:42:15.239Z,1012.70
2017-04-11T00:43:15.773Z,1012.68
2017-04-11T00:44:16.306Z,1012.66
2017-04-11T00:45:16.829Z,1012.71
2017-04-11T00:46:17.362Z,1012.69
2017-04-11T00:47:17.891Z,1012.75
2017-04-11T00:48:18.422Z,1012.74
2017-04-11T00:49:19.108Z,1012.73
2017-04-11T00:50:19.480Z,1012.75
2017-04-11T00:51:20.161Z,1012.77
2017-04-11T00:52:20.541Z,1012.76
2017-04-11T00:53:21.071Z,1012.70
2017-04-11T00:54:21.748Z,1012.73
2017-04-11T00:55:22.132Z,1012.75
2017-04-11T00:56:22.666Z,1012.73
2017-04-11T00:57:23.200Z,1012.75
2017-04-11T00:58:23.737Z,1012.75
2017-04-11T00:59:24.271Z,1012.69
2017-04-11T01:00:24.808Z,1012.72
2017-04-11T01:01:25.492Z,1012.72
2017-04-11T01:02:25.868Z,1012.69
2017-04-11T01:03:26.553Z,1012.73
2017-04-11T01:04:26.934Z,1012.71
2017-04-11T01:05:27.470Z,1012.72
2017-04-11T01:06:29.196Z,1012.73
2017-04-11T01:07:28.677Z,1012.79
2017-04-11T01:08:29.060Z,1012.78
2017-04-11T01:09:29.589Z,1012.79
2017-04-11T01:10:30.124Z,1012.82
2017-04-11T01:11:30.649Z,1012.80
2017-04-11T01:12:31.184Z,1012.83
2017-04-11T01:13:31.712Z,1012.84
2017-04-11T01:14:32.245Z,1012.84
2017-04-11T01:15:32.776Z,1012.89
2017-04-11T01:16:33.311Z,1012.87
2017-04-11T01:17:34.090Z,1012.90
2017-04-11T01:18:34.371Z,1012.89
2017-04-11T01:19:35.053Z,1012.89
2017-04-11T01:20:35.437Z,1012.84
2017-04-11T01:21:35.965Z,1012.86
2017-04-11T01:22:36.493Z,1012.85
2017-04-11T01:23:37.024Z,1012.88
2017-04-11T01:24:37.581Z,1012.80
2017-04-11T01:25:38.082Z,1012.78
2017-04-11T01:26:38.617Z,1012.83
2017-04-11T01:27:39.145Z,1012.79
2017-04-11T01:28:39.677Z,1012.80
2017-04-11T01:29:40.208Z,1012.83
2017-04-11T01:30:40.743Z,1012.80
2017-04-11T01:31:41.274Z,1012.80
2017-04-11T01:32:41.803Z,1012.77
2017-04-11T01:33:42.334Z,1012.79
2017-04-11T01:34:42.865Z,1012.88
2017-04-11T01:35:43.397Z,1012.79
2017-04-11T01:36:43.929Z,1012.77
2017-04-11T01:37:44.464Z,1012.76
2017-04-11T01:38:45.002Z,1012.77
2017-04-11T01:39:45.683Z,1012.71
2017-04-11T01:40:46.070Z,1012.80
2017-04-11T01:41:46.598Z,1012.82
2017-04-11T01:42:47.132Z,1012.86
2017-04-11T01:43:47.665Z,1012.86
2017-04-11T01:44:48.195Z,1012.88
2017-04-11T01:45:48.724Z,1012.87
2017-04-11T01:46:49.258Z,1012.90
2017-04-11T01:47:49.825Z,1012.93
2017-04-11T01:48:50.322Z,1012.97
2017-04-11T01:49:50.850Z,1012.93
2017-04-11T01:50:51.385Z,1012.97
2017-04-11T01:51:51.915Z,1012.99
2017-04-11T01:52:52.596Z,1013.00
2017-04-11T01:53:52.975Z,1012.94
2017-04-11T01:54:53.512Z,1013.00
2017-04-11T01:55:54.038Z,1013.02
2017-04-11T01:56:54.574Z,1012.98
2017-04-11T01:57:55.101Z,1012.99
2017-04-11T01:58:55.631Z,1013.01
2017-04-11T01:59:56.164Z,1013.06
2017-04-11T02:00:56.707Z,1013.05
2017-04-11T02:01:57.224Z,1013.07
2017-04-11T02:02:57.758Z,1013.02
2017-04-11T02:03:58.299Z,1013.07
2017-04-11T02:04:58.827Z,1013.06
2017-04-11T02:05:59.354Z,1013.07
2017-04-11T02:06:59.888Z,1013.06
2017-04-11T02:08:00.414Z,1013.05
2017-04-11T02:09:00.952Z,1013.04
2017-04-11T02:10:01.482Z,1013.06
2017-04-11T02:11:02.013Z,1013.06
2017-04-11T02:12:02.698Z,1013.08
2017-04-11T02:13:03.229Z,1013.07
2017-04-11T02:14:03.608Z,1013.04
2017-04-11T02:15:04.140Z,1013.08
2017-04-11T02:16:04.669Z,1013.05
2017-04-11T02:17:05.204Z,1013.05
2017-04-11T02:18:05.735Z,1013.09
2017-04-11T02:19:06.265Z,1013.11
2017-04-11T02:20:06.798Z,1013.11
2017-04-11T02:21:07.339Z,1013.11
2017-04-11T02:22:07.870Z,1013.14
2017-04-11T02:23:08.404Z,1013.13
2017-04-11T02:24:09.113Z,1013.18
2017-04-11T02:25:09.472Z,1013.18
2017-04-11T02:26:10.008Z,1013.18
2017-04-11T02:27:10.532Z,1013.16
2017-04-11T02:28:11.063Z,1013.22
2017-04-11T02:29:11.595Z,1013.18
2017-04-11T02:30:12.136Z,1013.18
2017-04-11T02:31:12.660Z,1013.18
2017-04-11T02:32:13.195Z,1013.20
2017-04-11T02:33:13.725Z,1013.16
2017-04-11T02:34:14.246Z,1013.26
2017-04-11T02:35:14.777Z,1013.22
2017-04-11T02:36:15.312Z,1013.24
2017-04-11T02:37:15.991Z,1013.24
2017-04-11T02:38:16.524Z,1013.24
2017-04-11T02:39:16.906Z,1013.26
2017-04-11T02:40:17.628Z,1013.28
2017-04-11T02:41:17.970Z,1013.27
2017-04-11T02:42:18.498Z,1013.26
2017-04-11T02:43:19.036Z,1013.26
2017-04-11T02:44:19.562Z,1013.20
2017-04-11T02:45:20.096Z,1013.26
2017-04-11T02:46:20.648Z,1013.16
2017-04-11T02:47:21.155Z,1013.16
2017-04-11T02:48:21.684Z,1013.19
2017-04-11T02:49:22.222Z,1013.21
2017-04-11T02:50:22.746Z,1013.21
2017-04-11T02:51:23.280Z,1013.16
2017-04-11T02:52:23.813Z,1013.15
2017-04-11T02:53:24.345Z,1013.22
2017-04-11T02:54:25.024Z,1013.14
2017-04-11T02:55:25.401Z,1013.14
2017-04-11T02:56:25.931Z,1013.19
2017-04-11T02:57:26.468Z,1013.22
2017-04-11T02:58:26.999Z,1013.22
2017-04-11T02:59:27.531Z,1013.23
2017-04-11T03:00:28.098Z,1013.21
2017-04-11T03:01:28.602Z,1013.24
2017-04-11T03:02:29.136Z,1013.23
2017-04-11T03:03:29.670Z,1013.25
2017-04-11T03:04:30.350Z,1013.21
2017-04-11T03:05:30.736Z,1013.24
2017-04-11T03:06:31.264Z,1013.28
2017-04-11T03:07:31.793Z,1013.28
2017-04-11T03:08:32.475Z,1013.24
2017-04-11T03:09:33.003Z,1013.35
2017-04-11T03:10:33.391Z,1013.30
2017-04-11T03:11:33.916Z,1013.28
2017-04-11T03:12:34.448Z,1013.28
2017-04-11T03:13:34.976Z,1013.29
2017-04-11T03:14:35.509Z,1013.35
2017-04-11T03:15:36.039Z,1013.35
2017-04-11T03:16:36.567Z,1013.34
2017-04-11T03:17:37.251Z,1013.34
2017-04-11T03:18:37.627Z,1013.30
2017-04-11T03:19:38.160Z,1013.32
2017-04-11T03:20:38.842Z,1013.35
2017-04-11T03:21:39.225Z,1013.30
2017-04-11T03:22:39.758Z,1013.29
2017-04-11T03:23:40.289Z,1013.27
2017-04-11T03:24:40.820Z,1013.27
2017-04-11T03:25:41.350Z,1013.31
2017-04-11T03:26:41.886Z,1013.25
2017-04-11T03:27:42.417Z,1013.29
2017-04-11T03:28:42.945Z,1013.32
2017-04-11T03:29:43.480Z,1013.31
2017-04-11T03:30:44.009Z,1013.31
2017-04-11T03:31:44.534Z,1013.35
2017-04-11T03:32:45.106Z,1013.32
2017-04-11T03:33:45.599Z,1013.37
2017-04-11T03:34:46.128Z,1013.35
2017-04-11T03:35:46.660Z,1013.38
2017-04-11T03:36:47.188Z,1013.31
2017-04-11T03:37:47.727Z,1013.36
2017-04-11T03:38:48.280Z,1013.35
2017-04-11T03:39:48.785Z,1013.35
2017-04-11T03:40:49.467Z,1013.38
2017-04-11T03:41:49.858Z,1013.38
2017-04-11T03:42:50.545Z,1013.41
2017-04-11T03:43:50.936Z,1013.39
2017-04-11T03:44:51.462Z,1013.42
2017-04-11T03:45:51.996Z,1013.43
2017-04-11T03:46:52.527Z,1013.40
2017-04-11T03:47:53.062Z,1013.46
2017-04-11T03:48:54.041Z,1013.46
2017-04-11T03:49:54.125Z,1013.49
2017-04-11T03:50:54.655Z,1013.49
2017-04-11T03:51:55.187Z,1013.51
2017-04-11T03:52:55.718Z,1013.49
2017-04-11T03:53:56.247Z,1013.50
2017-04-11T03:54:56.779Z,1013.48
2017-04-11T03:55:57.317Z,1013.43
2017-04-11T03:56:57.878Z,1013.45
2017-04-11T03:57:58.379Z,1013.50
2017-04-11T03:58:58.907Z,1013.50
2017-04-11T03:59:59.438Z,1013.48
2017-04-11T04:00:59.975Z,1013.51
2017-04-11T04:02:00.503Z,1013.49
2017-04-11T04:03:01.036Z,1013.56
2017-04-11T04:04:01.568Z,1013.59
2017-04-11T04:05:02.247Z,1013.58
2017-04-11T04:06:02.640Z,1013.56
2017-04-11T04:07:03.162Z,1013.59
2017-04-11T04:08:03.693Z,1013.60
2017-04-11T04:09:04.253Z,1013.56
2017-04-11T04:10:04.754Z,1013.58
2017-04-11T04:11:05.288Z,1013.59
2017-04-11T04:12:05.967Z,1013.59
2017-04-11T04:13:06.350Z,1013.63
2017-04-11T04:14:06.881Z,1013.64
2017-04-11T04:15:07.406Z,1013.60
2017-04-11T04:16:07.950Z,1013.60
2017-04-11T04:17:08.475Z,1013.64
2017-04-11T04:18:09.008Z,1013.66
2017-04-11T04:19:09.536Z,1013.69
2017-04-11T04:20:10.067Z,1013.76
2017-04-11T04:21:10.599Z,1013.72
2017-04-11T04:22:11.136Z,1013.75
2017-04-11T04:23:11.818Z,1013.78
2017-04-11T04:24:12.205Z,1013.77
2017-04-11T04:25:12.742Z,1013.78
2017-04-11T04:26:13.271Z,1013.82
2017-04-11T04:27:13.800Z,1013.85
2017-04-11T04:28:14.337Z,1013.80
2017-04-11T04:29:14.865Z,1013.88
2017-04-11T04:30:15.402Z,1013.84
2017-04-11T04:31:15.932Z,1013.94
2017-04-11T04:32:16.466Z,1013.91
2017-04-11T04:33:17.150Z,1013.84
2017-04-11T04:34:17.529Z,1013.92
2017-04-11T04:35:18.060Z,1013.91
2017-04-11T04:36:18.594Z,1013.94
2017-04-11T04:37:19.120Z,1013.93
2017-04-11T04:38:19.656Z,1013.95
2017-04-11T04:39:20.188Z,1013.97
2017-04-11T04:40:20.719Z,1013.95
2017-04-11T04:41:21.399Z,1013.96
2017-04-11T04:42:21.782Z,1013.93
2017-04-11T04:43:22.313Z,1014.03
2017-04-11T04:44:22.846Z,1013.98
2017-04-11T04:45:23.525Z,1013.97
2017-04-11T04:46:23.911Z,1013.97
2017-04-11T04:47:24.441Z,1014.03
2017-04-11T04:48:24.976Z,1014.03
2017-04-11T04:49:25.502Z,1014.01
2017-04-11T04:50:26.040Z,1014.07
2017-04-11T04:51:26.718Z,1014.06
2017-04-11T04:52:27.102Z,1014.07
2017-04-11T04:53:27.634Z,1014.06
2017-04-11T04:54:28.168Z,1014.13
2017-04-11T04:55:28.690Z,1014.16
2017-04-11T04:56:29.225Z,1014.08
2017-04-11T04:57:29.759Z,1014.17
2017-04-11T04:58:30.290Z,1014.17
2017-04-11T04:59:30.838Z,1014.14
2017-04-11T05:00:31.356Z,1014.11
2017-04-11T05:01:31.884Z,1014.18
2017-04-11T05:02:32.425Z,1014.12
2017-04-11T05:03:32.978Z,1014.19
2017-04-11T05:04:33.485Z,1014.18
2017-04-11T05:05:34.021Z,1014.26
2017-04-11T05:06:34.553Z,1014.30
2017-04-11T05:07:35.083Z,1014.34
2017-04-11T05:08:35.621Z,1014.35
2017-04-11T05:09:36.162Z,1014.31
2017-04-11T05:10:36.685Z,1014.36
2017-04-11T05:11:37.215Z,1014.37
2017-04-11T05:12:37.743Z,1014.37
2017-04-11T05:13:38.274Z,1014.38
2017-04-11T05:14:38.807Z,1014.34
2017-04-11T05:15:39.340Z,1014.40
2017-04-11T05:16:39.868Z,1014.44
2017-04-11T05:17:40.398Z,1014.46
2017-04-11T05:18:40.930Z,1014.46
2017-04-11T05:19:41.610Z,1014.53
2017-04-11T05:20:42.005Z,1014.53
2017-04-11T05:21:42.523Z,1014.51
2017-04-11T05:22:43.060Z,1014.54
2017-04-11T05:23:43.636Z,1014.54
2017-04-11T05:24:44.117Z,1014.53
2017-04-11T05:25:44.650Z,1014.53
2017-04-11T05:26:45.180Z,1014.59
2017-04-11T05:27:45.713Z,1014.62
2017-04-11T05:28:46.246Z,1014.61
2017-04-11T05:29:47.109Z,1014.70
2017-04-11T05:30:47.308Z,1014.67
2017-04-11T05:31:47.837Z,1014.63
2017-04-11T05:32:48.369Z,1014.70
2017-04-11T05:33:48.907Z,1014.67
2017-04-11T05:34:49.436Z,1014.69
2017-04-11T05:35:49.964Z,1014.73
2017-04-11T05:36:50.492Z,1014.70
2017-04-11T05:37:51.025Z,1014.69
2017-04-11T05:38:51.561Z,1014.77
2017-04-11T05:39:52.087Z,1014.76
2017-04-11T05:40:52.630Z,1014.77
2017-04-11T05:41:53.157Z,1014.77
2017-04-11T05:42:53.690Z,1014.82
2017-04-11T05:43:54.231Z,1014.82
2017-04-11T05:44:54.757Z,1014.86
2017-04-11T05:45:55.300Z,1014.87
2017-04-11T05:46:55.834Z,1014.90
2017-04-11T05:47:56.367Z,1014.88
2017-04-11T05:48:56.901Z,1014.88
2017-04-11T05:49:57.429Z,1014.96
2017-04-11T05:50:57.966Z,1014.94
2017-04-11T05:51:58.490Z,1014.93
2017-04-11T05:52:59.018Z,1014.97
2017-04-11T05:53:59.567Z,1015.00
2017-04-11T05:55:00.082Z,1015.00
2017-04-11T05:56:00.608Z,1015.03
2017-04-11T05:57:01.142Z,1015.00
2017-04-11T05:58:01.675Z,1014.98
2017-04-11T05:59:02.205Z,1015.01
2017-04-11T06:00:02.734Z,1015.02
2017-04-11T06:01:03.412Z,1015.06
2017-04-11T06:02:03.830Z,1015.05
2017-04-11T06:03:04.335Z,1015.08
2017-04-11T06:04:04.861Z,1015.04
2017-04-11T06:05:05.394Z,1015.03
2017-04-11T06:06:05.923Z,1015.00
2017-04-11T06:07:06.461Z,1015.03
2017-04-11T06:08:06.989Z,1015.09
2017-04-11T06:09:07.525Z,1015.07
2017-04-11T06:10:08.059Z,1015.03
2017-04-11T06:11:08.582Z,1015.10
2017-04-11T06:12:09.111Z,1015.11
2017-04-11T06:13:09.642Z,1015.16
2017-04-11T06:14:10.176Z,1015.12
2017-04-11T06:16:11.246Z,1015.13
2017-04-11T06:17:11.770Z,1015.15
2017-04-11T06:18:12.297Z,1015.24
2017-04-11T06:19:12.831Z,1015.14
2017-04-11T06:20:13.507Z,1015.15
2017-04-11T06:21:13.892Z,1015.19
2017-04-11T06:22:14.445Z,1015.11
2017-04-11T06:23:14.957Z,1015.12
2017-04-11T06:24:15.491Z,1015.12
2017-04-11T06:25:16.028Z,1015.11
2017-04-11T06:26:16.713Z,1015.15
2017-04-11T06:27:17.100Z,1015.15
2017-04-11T06:28:17.633Z,1015.11
2017-04-11T06:29:18.171Z,1015.16
2017-04-11T06:30:18.704Z,1015.12
2017-04-11T06:32:19.768Z,1015.12
2017-04-11T06:33:20.303Z,1015.19
2017-04-11T06:34:20.830Z,1015.18
2017-04-11T06:35:21.521Z,1015.14
2017-04-11T06:36:21.900Z,1015.15
2017-04-11T06:37:22.427Z,1015.15
2017-04-11T06:38:23.107Z,1015.21
2017-04-11T06:39:23.494Z,1015.15
2017-04-11T06:40:24.023Z,1015.23
2017-04-11T06:41:24.699Z,1015.20
2017-04-11T06:42:25.082Z,1015.22
2017-04-11T06:44:26.146Z,1015.18
2017-04-11T06:45:26.679Z,1015.12
2017-04-11T06:46:27.209Z,1015.17
2017-04-11T06:47:27.741Z,1015.16
2017-04-11T06:48:28.275Z,1015.18
2017-04-11T06:50:29.337Z,1015.20
2017-04-11T06:51:29.867Z,1015.11
2017-04-11T06:52:30.398Z,1015.12
2017-04-11T06:53:30.931Z,1015.19
2017-04-11T06:54:31.459Z,1015.16
2017-04-11T06:55:31.991Z,1015.15
2017-04-11T06:56:32.526Z,1015.13
2017-04-11T06:57:33.198Z,1015.17
2017-04-11T06:58:33.731Z,1015.10
2017-04-11T06:59:34.112Z,1015.14
2017-04-11T07:00:34.651Z,1015.06
2017-04-11T07:01:35.178Z,1015.15
2017-04-11T07:02:35.709Z,1015.09
2017-04-11T07:03:36.245Z,1015.12
2017-04-11T07:04:36.772Z,1015.18
2017-04-11T07:05:37.324Z,1015.15
2017-04-11T07:06:37.990Z,1015.12
2017-04-11T07:07:38.375Z,1015.15
2017-04-11T07:09:39.443Z,1015.10
2017-04-11T07:10:39.975Z,1015.09
2017-04-11T07:11:40.509Z,1015.15
2017-04-11T07:12:41.049Z,1015.14
2017-04-11T07:13:41.568Z,1015.10
2017-04-11T07:14:42.250Z,1015.12
2017-04-11T07:15:42.639Z,1015.09
2017-04-11T07:16:43.318Z,1015.13
2017-04-11T07:17:43.697Z,1015.10
2017-04-11T07:18:44.376Z,1015.12
2017-04-11T07:19:44.906Z,1015.08
2017-04-11T07:20:45.289Z,1015.08
2017-04-11T07:21:45.819Z,1015.07
2017-04-11T07:22:46.498Z,1015.07
2017-04-11T07:23:46.880Z,1015.07
2017-04-11T07:24:47.557Z,1015.15
2017-04-11T07:25:47.943Z,1015.07
2017-04-11T07:26:48.623Z,1015.09
2017-04-11T07:27:49.005Z,1015.08
2017-04-11T07:28:49.535Z,1015.07
2017-04-11T07:29:50.063Z,1015.12
2017-04-11T07:30:50.632Z,1015.07
2017-04-11T07:31:51.128Z,1015.07
2017-04-11T07:32:51.659Z,1015.05
2017-04-11T07:33:52.187Z,1015.07
2017-04-11T07:34:52.716Z,1015.10
2017-04-11T07:35:53.250Z,1015.12
2017-04-11T07:36:53.932Z,1015.14
2017-04-11T07:37:54.315Z,1015.04
2017-04-11T07:38:54.849Z,1015.07
2017-04-11T07:39:55.374Z,1015.05
2017-04-11T07:40:55.943Z,1015.08
2017-04-11T07:41:56.437Z,1015.08
2017-04-11T07:42:56.965Z,1015.09
2017-04-11T07:43:57.497Z,1015.07
2017-04-11T07:44:58.028Z,1015.09
2017-04-11T07:45:58.557Z,1015.09
2017-04-11T07:46:59.088Z,1015.03
2017-04-11T07:47:59.627Z,1015.11
2017-04-11T07:49:00.161Z,1015.05
2017-04-11T07:50:00.692Z,1015.08
2017-04-11T07:51:01.376Z,1015.04
2017-04-11T07:52:01.757Z,1015.12
2017-04-11T07:53:02.285Z,1015.08
2017-04-11T07:54:02.815Z,1015.13
2017-04-11T07:55:03.377Z,1015.13
2017-04-11T07:56:03.881Z,1015.10
2017-04-11T07:57:04.415Z,1015.09
2017-04-11T07:58:04.947Z,1015.19
2017-04-11T07:59:05.473Z,1015.10
2017-04-11T08:00:06.002Z,1015.24
2017-04-11T08:01:06.537Z,1015.21
2017-04-11T08:02:07.070Z,1015.23
2017-04-11T08:03:07.599Z,1015.20
2017-04-11T08:04:08.128Z,1015.21
2017-04-11T08:05:08.657Z,1015.24
2017-04-11T08:06:09.191Z,1015.19
2017-04-11T08:07:09.722Z,1015.18
2017-04-11T08:08:10.251Z,1015.21
2017-04-11T08:09:10.781Z,1015.15
2017-04-11T08:10:11.315Z,1015.14
2017-04-11T08:11:11.845Z,1015.14
2017-04-11T08:12:12.384Z,1015.20
2017-04-11T08:13:12.907Z,1015.18
2017-04-11T08:14:13.439Z,1015.19
2017-04-11T08:15:13.969Z,1015.16
2017-04-11T08:16:14.506Z,1015.18
2017-04-11T08:17:15.038Z,1015.12
2017-04-11T08:18:15.567Z,1015.09
2017-04-11T08:19:16.095Z,1015.11
2017-04-11T08:20:16.624Z,1015.13
2017-04-11T08:21:17.157Z,1015.13
2017-04-11T08:23:18.225Z,1015.09
2017-04-11T08:24:18.754Z,1015.12
2017-04-11T08:25:19.293Z,1015.02
2017-04-11T08:26:19.817Z,1015.11
2017-04-11T08:27:20.352Z,1015.09
2017-04-11T08:28:20.885Z,1015.15
2017-04-11T08:29:21.432Z,1015.16
2017-04-11T08:30:21.959Z,1015.11
2017-04-11T08:31:22.489Z,1015.13
2017-04-11T08:32:23.027Z,1015.05
2017-04-11T08:33:23.696Z,1015.10
2017-04-11T08:34:24.076Z,1015.18
2017-04-11T08:35:24.608Z,1015.13
2017-04-11T08:36:25.138Z,1015.20
2017-04-11T08:37:25.672Z,1015.16
2017-04-11T08:38:26.204Z,1015.11
2017-04-11T08:39:27.006Z,1015.13
2017-04-11T08:40:27.269Z,1015.05
2017-04-11T08:41:27.789Z,1015.06
2017-04-11T08:42:28.347Z,1015.13
2017-04-11T08:43:28.857Z,1015.10
2017-04-11T08:44:29.387Z,1015.13
2017-04-11T08:45:29.915Z,1015.16
2017-04-11T08:46:30.447Z,1015.22
2017-04-11T08:47:30.989Z,1015.24
2017-04-11T08:48:31.520Z,1015.27
2017-04-11T08:49:32.043Z,1015.24
2017-04-11T08:50:32.575Z,1015.28
2017-04-11T08:51:33.114Z,1015.22
2017-04-11T08:52:33.638Z,1015.20
2017-04-11T08:53:34.175Z,1015.27
2017-04-11T08:54:34.700Z,1015.35
2017-04-11T08:55:35.224Z,1015.39
2017-04-11T08:56:35.757Z,1015.32
2017-04-11T08:57:36.304Z,1015.31
2017-04-11T08:58:36.820Z,1015.31
2017-04-11T08:59:37.387Z,1015.32
2017-04-11T09:00:37.884Z,1015.30
2017-04-11T09:01:38.412Z,1015.35
2017-04-11T09:02:38.945Z,1015.36
2017-04-11T09:03:39.511Z,1015.39
2017-04-11T09:04:40.011Z,1015.43
2017-04-11T09:05:40.537Z,1015.42
2017-04-11T09:06:41.221Z,1015.46
2017-04-11T09:07:41.612Z,1015.48
2017-04-11T09:08:42.142Z,1015.37
2017-04-11T09:09:42.675Z,1015.47
2017-04-11T09:10:43.355Z,1015.45
2017-04-11T09:11:43.761Z,1015.46
2017-04-11T09:12:44.280Z,1015.48
2017-04-11T09:13:44.808Z,1015.44
2017-04-11T09:14:45.342Z,1015.52
2017-04-11T09:15:45.874Z,1015.43
2017-04-11T09:16:46.399Z,1015.43
2017-04-11T09:17:46.933Z,1015.50
2017-04-11T09:18:47.465Z,1015.56
2017-04-11T09:19:47.991Z,1015.53
2017-04-11T09:20:48.669Z,1015.48
2017-04-11T09:21:49.207Z,1015.51
2017-04-11T09:22:49.580Z,1015.42
2017-04-11T09:23:50.259Z,1015.45
2017-04-11T09:24:50.638Z,1015.48
2017-04-11T09:25:51.169Z,1015.46
2017-04-11T09:26:51.697Z,1015.41
2017-04-11T09:27:52.376Z,1015.47
2017-04-11T09:28:52.756Z,1015.46
2017-04-11T09:29:53.286Z,1015.50
2017-04-11T09:30:53.815Z,1015.46
2017-04-11T09:31:54.350Z,1015.43
2017-04-11T09:32:54.876Z,1015.40
2017-04-11T09:33:55.416Z,1015.45
2017-04-11T09:34:55.946Z,1015.46
2017-04-11T09:35:56.471Z,1015.50
2017-04-11T09:36:57.002Z,1015.45
2017-04-11T09:37:57.530Z,1015.50
2017-04-11T09:38:58.205Z,1015.44
2017-04-11T09:39:58.591Z,1015.42
2017-04-11T09:40:59.124Z,1015.43
2017-04-11T09:41:59.795Z,1015.47
2017-04-11T09:43:00.176Z,1015.43
2017-04-11T09:44:00.705Z,1015.46
2017-04-11T09:45:01.237Z,1015.46
2017-04-11T09:46:01.768Z,1015.42
2017-04-11T09:47:02.306Z,1015.50
2017-04-11T09:48:02.861Z,1015.54
2017-04-11T09:49:03.367Z,1015.50
2017-04-11T09:50:03.901Z,1015.53
2017-04-11T09:51:04.434Z,1015.44
2017-04-11T09:52:04.971Z,1015.51
2017-04-11T09:53:05.505Z,1015.58
2017-04-11T09:54:06.033Z,1015.55
2017-04-11T09:55:06.566Z,1015.52
2017-04-11T09:56:07.102Z,1015.57
2017-04-11T09:57:07.633Z,1015.53
2017-04-11T09:58:08.310Z,1015.63
2017-04-11T09:59:08.745Z,1015.61
2017-04-11T10:00:09.218Z,1015.66
2017-04-11T10:01:09.752Z,1015.61
2017-04-11T10:02:10.430Z,1015.64
2017-04-11T10:03:10.815Z,1015.57
2017-04-11T10:04:11.343Z,1015.53
2017-04-11T10:05:11.875Z,1015.60
2017-04-11T10:06:12.411Z,1015.59
2017-04-11T10:07:12.937Z,1015.59
2017-04-11T10:08:13.471Z,1015.60
2017-04-11T10:09:14.002Z,1015.64
2017-04-11T10:10:14.530Z,1015.54
2017-04-11T10:11:15.064Z,1015.59
2017-04-11T10:12:15.591Z,1015.59
2017-04-11T10:13:16.127Z,1015.62
2017-04-11T10:14:16.805Z,1015.57
2017-04-11T10:15:17.189Z,1015.50
2017-04-11T10:16:17.869Z,1015.58
2017-04-11T10:17:18.249Z,1015.53
2017-04-11T10:18:18.778Z,1015.43
2017-04-11T10:19:19.308Z,1015.46
2017-04-11T10:20:19.840Z,1015.52
2017-04-11T10:21:20.376Z,1015.40
2017-04-11T10:22:20.916Z,1015.47
2017-04-11T10:23:21.430Z,1015.44
2017-04-11T10:24:21.972Z,1015.40
2017-04-11T10:25:22.498Z,1015.46
2017-04-11T10:26:23.023Z,1015.41
2017-04-11T10:27:23.552Z,1015.43
2017-04-11T10:28:24.080Z,1015.38
2017-04-11T10:29:24.613Z,1015.39
2017-04-11T10:30:25.147Z,1015.35
2017-04-11T10:31:25.681Z,1015.44
2017-04-11T10:32:26.222Z,1015.44
2017-04-11T10:33:26.754Z,1015.35
2017-04-11T10:34:27.285Z,1015.34
2017-04-11T10:35:27.821Z,1015.39
2017-04-11T10:36:28.349Z,1015.44
2017-04-11T10:37:28.882Z,1015.39
2017-04-11T10:38:29.418Z,1015.51
2017-04-11T10:39:29.940Z,1015.44
2017-04-11T10:40:30.471Z,1015.40
2017-04-11T10:41:31.002Z,1015.43
2017-04-11T10:42:31.529Z,1015.53
2017-04-11T10:43:32.060Z,1015.40
2017-04-11T10:44:32.593Z,1015.47
2017-04-11T10:45:33.123Z,1015.44
2017-04-11T10:46:33.657Z,1015.52
2017-04-11T10:47:34.331Z,1015.50
2017-04-11T10:48:34.715Z,1015.51
2017-04-11T10:49:35.247Z,1015.42
2017-04-11T10:50:35.779Z,1015.49
2017-04-11T10:51:36.321Z,1015.55
2017-04-11T10:52:36.994Z,1015.58
2017-04-11T10:53:37.375Z,1015.50
2017-04-11T10:54:37.908Z,1015.43
2017-04-11T10:55:38.443Z,1015.44
2017-04-11T10:56:38.968Z,1015.49
2017-04-11T10:57:39.506Z,1015.56
2017-04-11T10:58:40.034Z,1015.46
2017-04-11T10:59:40.569Z,1015.53
2017-04-11T11:00:41.098Z,1015.51
2017-04-11T11:01:41.629Z,1015.48
2017-04-11T11:02:42.169Z,1015.48
2017-04-11T11:03:42.693Z,1015.48
2017-04-11T11:04:43.220Z,1015.46
2017-04-11T11:05:43.755Z,1015.53
2017-04-11T11:06:44.283Z,1015.59
2017-04-11T11:07:44.813Z,1015.58
2017-04-11T11:08:45.339Z,1015.50
2017-04-11T11:09:45.877Z,1015.35
2017-04-11T11:10:46.406Z,1015.46
2017-04-11T11:11:46.938Z,1015.48
2017-04-11T11:12:47.468Z,1015.49
2017-04-11T11:13:48.013Z,1015.50
2017-04-11T11:14:48.574Z,1015.44
2017-04-11T11:15:49.075Z,1015.43
2017-04-11T11:16:49.755Z,1015.54
2017-04-11T11:17:50.138Z,1015.42
2017-04-11T11:18:50.685Z,1015.42
2017-04-11T11:19:51.199Z,1015.44
2017-04-11T11:20:51.730Z,1015.48
2017-04-11T11:21:52.267Z,1015.37
2017-04-11T11:22:52.790Z,1015.51
2017-04-11T11:23:53.320Z,1015.45
2017-04-11T11:24:53.859Z,1015.47
2017-04-11T11:25:54.382Z,1015.48
2017-04-11T11:26:54.948Z,1015.41
2017-04-11T11:27:55.452Z,1015.52
2017-04-11T11:28:55.969Z,1015.41
2017-04-11T11:29:56.509Z,1015.44
2017-04-11T11:30:57.038Z,1015.55
2017-04-11T11:31:57.564Z,1015.53
2017-04-11T11:32:58.109Z,1015.44
2017-04-11T11:33:58.629Z,1015.49
2017-04-11T11:34:59.164Z,1015.23
2017-04-11T11:35:59.688Z,1015.41
2017-04-11T11:37:00.365Z,1015.39
2017-04-11T11:38:00.745Z,1015.36
2017-04-11T11:39:01.278Z,1015.32
2017-04-11T11:40:01.833Z,1015.33
2017-04-11T11:41:02.331Z,1015.36
2017-04-11T11:42:02.869Z,1015.32
2017-04-11T11:43:03.399Z,1015.32
2017-04-11T11:44:03.930Z,1015.36
2017-04-11T11:45:04.613Z,1015.30
2017-04-11T11:46:04.998Z,1015.27
2017-04-11T11:47:05.521Z,1015.37
2017-04-11T11:48:06.054Z,1015.34
2017-04-11T11:49:06.581Z,1015.34
2017-04-11T11:50:07.112Z,1015.25
2017-04-11T11:51:07.645Z,1015.29
2017-04-11T11:52:08.181Z,1015.20
2017-04-11T11:53:08.713Z,1015.16
2017-04-11T11:54:09.250Z,1015.23
2017-04-11T11:55:09.786Z,1015.24
2017-04-11T11:56:10.319Z,1015.24
2017-04-11T11:57:10.853Z,1015.27
2017-04-11T11:58:11.389Z,1015.25
2017-04-11T11:59:12.062Z,1015.27
2017-04-11T12:00:12.447Z,1015.28
2017-04-11T12:01:12.977Z,1015.31
2017-04-11T12:02:13.512Z,1015.23
2017-04-11T12:03:14.042Z,1015.28
2017-04-11T12:04:14.568Z,1015.27
2017-04-11T12:05:15.098Z,1015.27
2017-04-11T12:06:15.630Z,1015.24
2017-04-11T12:07:16.156Z,1015.20
2017-04-11T12:08:16.687Z,1015.19
2017-04-11T12:09:17.218Z,1015.26
2017-04-11T12:10:17.747Z,1015.25
2017-04-11T12:11:18.277Z,1015.34
2017-04-11T12:12:18.812Z,1015.32
2017-04-11T12:13:19.351Z,1015.24
2017-04-11T12:14:19.873Z,1015.20
2017-04-11T12:15:20.409Z,1015.17
2017-04-11T12:16:21.118Z,1015.23
2017-04-11T12:17:21.466Z,1015.22
2017-04-11T12:18:21.996Z,1015.26